createdAt,value
2022-12-06T00:01:32.582Z,88.53
2022-12-06T00:04:03.446Z,88.50
2022-12-06T00:06:33.850Z,89.13
2022-12-06T00:09:01.434Z,89.30
2022-12-06T00:11:36.556Z,88.95
2022-12-06T00:14:07.337Z,89.29
2022-12-06T00:16:35.245Z,89.86
2022-12-06T00:19:04.266Z,89.74
2022-12-06T00:21:36.859Z,90.01
2022-12-06T00:24:13.395Z,89.94
2022-12-06T00:26:44.185Z,90.37
2022-12-06T00:29:18.550Z,90.15
2022-12-06T00:31:46.039Z,90.57
2022-12-06T00:34:13.091Z,90.35
2022-12-06T00:36:42.474Z,90.96
2022-12-06T00:39:15.917Z,90.98
2022-12-06T00:41:44.222Z,90.98
2022-12-06T00:44:12.238Z,91.33
2022-12-06T00:46:40.099Z,91.20
2022-12-06T00:49:09.348Z,91.29
2022-12-06T00:51:37.367Z,91.72
2022-12-06T00:54:05.541Z,92.28
2022-12-06T00:56:34.455Z,92.65
2022-12-06T00:59:01.484Z,92.82
2022-12-06T01:01:31.618Z,92.81
2022-12-06T01:04:01.795Z,93.05
2022-12-06T01:06:32.598Z,92.90
2022-12-06T01:09:05.326Z,93.17
2022-12-06T01:11:33.366Z,92.57
2022-12-06T01:14:00.491Z,93.12
2022-12-06T01:16:30.126Z,93.08
2022-12-06T01:19:01.456Z,92.85
2022-12-06T01:21:29.494Z,92.80
2022-12-06T01:23:57.416Z,92.47
2022-12-06T01:26:27.686Z,92.99
2022-12-06T01:28:55.407Z,93.74
2022-12-06T01:31:22.816Z,93.99
2022-12-06T01:33:49.873Z,94.33
2022-12-06T01:36:23.255Z,94.66
2022-12-06T01:38:52.773Z,94.78
2022-12-06T01:41:22.225Z,94.66
2022-12-06T01:43:49.892Z,94.32
2022-12-06T01:46:42.038Z,93.97
2022-12-06T01:49:29.573Z,93.87
2022-12-06T01:52:05.986Z,94.37
2022-12-06T01:54:33.803Z,94.15
2022-12-06T01:57:05.096Z,94.31
2022-12-06T01:59:32.138Z,94.08
2022-12-06T02:01:59.398Z,94.77
2022-12-06T02:04:29.054Z,94.85
2022-12-06T02:06:57.558Z,94.26
2022-12-06T02:09:26.899Z,94.45
2022-12-06T02:11:53.916Z,94.47
2022-12-06T02:14:27.471Z,93.76
2022-12-06T02:17:18.922Z,93.81
2022-12-06T02:20:11.830Z,93.85
2022-12-06T02:23:02.630Z,94.09
2022-12-06T02:25:57.187Z,93.78
2022-12-06T02:28:52.105Z,94.46
2022-12-06T02:31:37.110Z,94.35
2022-12-06T02:34:18.189Z,94.28
2022-12-06T02:37:00.813Z,94.54
2022-12-06T02:39:38.307Z,94.47
2022-12-06T02:42:56.981Z,94.56
2022-12-06T02:45:30.053Z,94.48
2022-12-06T02:48:01.629Z,94.36
2022-12-06T02:50:37.771Z,93.99
2022-12-06T02:53:09.486Z,93.90
2022-12-06T02:55:37.091Z,94.41
2022-12-06T02:58:04.114Z,94.38
2022-12-06T03:00:44.340Z,94.06
2022-12-06T03:03:46.590Z,93.94
2022-12-06T03:06:51.005Z,94.16
2022-12-06T03:09:42.171Z,93.88
2022-12-06T03:12:24.916Z,93.91
2022-12-06T03:15:20.124Z,93.75
2022-12-06T03:17:50.015Z,93.84
2022-12-06T03:20:26.342Z,94.37
2022-12-06T03:23:05.329Z,94.19
2022-12-06T03:25:35.484Z,94.18
2022-12-06T03:28:05.406Z,93.72
2022-12-06T03:30:34.642Z,93.84
2022-12-06T03:33:02.878Z,94.14
2022-12-06T03:35:34.243Z,94.62
2022-12-06T03:38:14.880Z,94.44
2022-12-06T03:40:47.186Z,94.60
2022-12-06T03:43:14.938Z,94.93
2022-12-06T03:45:59.545Z,94.37
2022-12-06T03:48:40.209Z,94.55
2022-12-06T03:51:17.726Z,94.05
2022-12-06T03:53:51.920Z,94.00
2022-12-06T03:56:19.504Z,94.33
2022-12-06T03:58:46.609Z,94.29
2022-12-06T04:01:14.489Z,94.21
2022-12-06T04:03:41.758Z,93.88
2022-12-06T04:06:10.475Z,94.59
2022-12-06T04:08:37.582Z,94.29
2022-12-06T04:11:05.282Z,94.52
2022-12-06T04:13:32.629Z,94.49
2022-12-06T04:16:01.750Z,94.97
2022-12-06T04:18:29.180Z,95.13
2022-12-06T04:21:18.892Z,94.80
2022-12-06T04:23:51.676Z,94.73
2022-12-06T04:26:22.285Z,94.63
2022-12-06T04:29:10.163Z,94.54
2022-12-06T04:31:57.713Z,94.48
2022-12-06T04:34:43.278Z,94.46
2022-12-06T04:37:30.433Z,95.22
2022-12-06T04:39:57.611Z,94.85
2022-12-06T04:42:43.491Z,95.74
2022-12-06T04:45:11.018Z,95.94
2022-12-06T04:47:37.917Z,95.66
2022-12-06T04:50:05.524Z,95.75
2022-12-06T04:52:35.685Z,95.94
2022-12-06T04:55:05.095Z,95.92
2022-12-06T04:57:32.162Z,95.64
2022-12-06T04:59:59.392Z,95.65
2022-12-06T05:02:26.588Z,95.62
2022-12-06T05:04:53.556Z,95.60
2022-12-06T05:07:20.496Z,95.84
2022-12-06T05:09:47.454Z,95.88
2022-12-06T05:12:14.419Z,95.93
2022-12-06T05:14:41.381Z,96.68
2022-12-06T05:17:08.348Z,96.27
2022-12-06T05:19:35.359Z,96.14
2022-12-06T05:22:02.287Z,96.35
2022-12-06T05:24:29.239Z,96.31
2022-12-06T05:26:56.161Z,96.29
2022-12-06T05:29:23.062Z,96.56
2022-12-06T05:31:50.144Z,96.50
2022-12-06T05:34:17.188Z,96.31
2022-12-06T05:36:45.959Z,96.41
2022-12-06T05:39:13.001Z,97.03
2022-12-06T05:41:39.941Z,96.75
2022-12-06T05:44:06.948Z,96.87
2022-12-06T05:46:33.893Z,96.92
2022-12-06T05:49:00.825Z,96.50
2022-12-06T05:51:27.757Z,96.92
2022-12-06T05:53:54.875Z,97.27
2022-12-06T05:56:21.874Z,96.92
2022-12-06T05:58:49.103Z,96.92
2022-12-06T06:01:16.072Z,96.74
2022-12-06T06:03:47.401Z,96.62
2022-12-06T06:06:15.197Z,96.96
2022-12-06T06:08:42.268Z,97.00
2022-12-06T06:11:09.308Z,96.54
2022-12-06T06:13:36.263Z,96.38
2022-12-06T06:16:03.306Z,96.28
2022-12-06T06:18:30.273Z,96.10
2022-12-06T06:21:00.855Z,96.11
2022-12-06T06:23:28.731Z,95.76
2022-12-06T06:25:56.094Z,96.47
2022-12-06T06:28:23.781Z,96.78
2022-12-06T06:30:51.101Z,96.70
2022-12-06T06:33:18.119Z,96.19
2022-12-06T06:35:45.101Z,95.88
2022-12-06T06:38:12.813Z,96.21
2022-12-06T06:40:39.756Z,96.08
2022-12-06T06:43:20.164Z,95.91
2022-12-06T06:46:03.920Z,95.38
2022-12-06T06:48:35.513Z,95.76
2022-12-06T06:51:09.030Z,95.48
2022-12-06T06:53:36.955Z,95.42
2022-12-06T06:56:04.638Z,95.77
2022-12-06T06:58:32.054Z,96.12
2022-12-06T07:01:01.898Z,95.89
2022-12-06T07:03:29.460Z,96.82
2022-12-06T07:06:04.071Z,96.38
2022-12-06T07:08:32.264Z,96.59
2022-12-06T07:10:59.621Z,96.80
2022-12-06T07:13:28.685Z,96.35
2022-12-06T07:15:56.259Z,96.62
2022-12-06T07:18:23.418Z,96.85
2022-12-06T07:20:57.981Z,96.72
2022-12-06T07:23:24.974Z,96.71
2022-12-06T07:26:11.188Z,96.06
2022-12-06T07:28:40.842Z,96.43
2022-12-06T07:31:23.934Z,96.45
2022-12-06T07:33:57.823Z,96.37
2022-12-06T07:36:26.180Z,96.90
2022-12-06T07:38:56.217Z,96.36
2022-12-06T07:41:45.761Z,96.20
2022-12-06T07:44:34.121Z,96.31
2022-12-06T07:47:01.727Z,96.74
2022-12-06T07:49:29.078Z,97.19
2022-12-06T07:51:57.121Z,97.41
2022-12-06T07:54:24.845Z,97.45
2022-12-06T07:56:52.246Z,96.88
2022-12-06T07:59:19.293Z,96.45
2022-12-06T08:01:46.319Z,96.46
2022-12-06T08:04:13.807Z,96.49
2022-12-06T08:06:40.952Z,95.99
2022-12-06T08:09:08.955Z,96.46
2022-12-06T08:11:36.479Z,96.31
2022-12-06T08:14:04.844Z,96.09
2022-12-06T08:16:31.984Z,96.21
2022-12-06T08:18:59.198Z,96.26
2022-12-06T08:21:26.818Z,96.31
2022-12-06T08:23:54.856Z,96.10
2022-12-06T08:26:22.253Z,96.50
2022-12-06T08:28:49.704Z,96.48
2022-12-06T08:31:21.974Z,96.34
2022-12-06T08:33:49.386Z,95.66
2022-12-06T08:36:22.395Z,95.86
2022-12-06T08:38:51.067Z,96.06
2022-12-06T08:41:36.794Z,96.18
2022-12-06T08:44:04.912Z,95.52
2022-12-06T08:46:34.321Z,95.65
2022-12-06T08:49:01.752Z,95.65
2022-12-06T08:51:29.048Z,96.12
2022-12-06T08:53:56.682Z,95.95
2022-12-06T08:56:24.210Z,95.48
2022-12-06T08:58:53.888Z,95.97
2022-12-06T09:01:31.232Z,95.01
2022-12-06T09:04:02.689Z,94.63
2022-12-06T09:06:30.403Z,94.96
2022-12-06T09:08:58.503Z,95.94
2022-12-06T09:11:26.583Z,96.35
2022-12-06T09:13:53.541Z,95.96
2022-12-06T09:16:23.537Z,95.69
2022-12-06T09:18:51.643Z,95.56
2022-12-06T09:21:23.248Z,95.61
2022-12-06T09:23:51.168Z,95.55
2022-12-06T09:26:18.413Z,95.09
2022-12-06T09:28:50.671Z,94.54
2022-12-06T09:31:19.308Z,94.47
2022-12-06T09:33:46.955Z,94.27
2022-12-06T09:36:30.593Z,95.62
2022-12-06T09:39:23.387Z,95.53
2022-12-06T09:42:13.900Z,94.77
2022-12-06T09:45:02.967Z,94.91
2022-12-06T09:47:51.660Z,94.58
2022-12-06T09:50:47.616Z,94.49
2022-12-06T09:53:34.438Z,94.89
2022-12-06T09:56:36.116Z,95.30
2022-12-06T09:59:17.783Z,95.10
2022-12-06T10:02:16.019Z,94.61
2022-12-06T10:05:34.745Z,93.56
2022-12-06T10:08:58.532Z,92.97
2022-12-06T10:11:45.989Z,93.38
2022-12-06T10:15:01.214Z,94.99
2022-12-06T10:18:01.632Z,95.29
2022-12-06T10:20:40.632Z,95.72
2022-12-06T10:23:22.796Z,96.06
2022-12-06T10:26:25.115Z,96.53
2022-12-06T10:29:28.810Z,96.55
2022-12-06T10:32:15.320Z,96.00
2022-12-06T10:34:55.706Z,95.68
2022-12-06T10:37:35.879Z,95.92
2022-12-06T10:40:17.860Z,95.76
2022-12-06T10:43:12.073Z,95.57
2022-12-06T10:46:09.185Z,96.21
2022-12-06T10:48:47.722Z,95.97
2022-12-06T10:51:25.174Z,97.01
2022-12-06T10:54:05.502Z,97.67
2022-12-06T10:56:41.829Z,97.59
2022-12-06T10:59:54.378Z,97.24
2022-12-06T11:03:03.807Z,97.16
2022-12-06T11:05:42.455Z,96.86
2022-12-06T11:08:24.240Z,96.12
2022-12-06T11:10:55.324Z,95.99
2022-12-06T11:13:51.117Z,95.71
2022-12-06T11:16:28.313Z,95.65
2022-12-06T11:19:02.585Z,95.38
2022-12-06T11:21:52.320Z,95.42
2022-12-06T11:24:31.306Z,95.91
2022-12-06T11:27:15.832Z,96.80
2022-12-06T11:29:47.441Z,96.21
2022-12-06T11:32:16.477Z,96.81
2022-12-06T11:34:51.274Z,96.72
2022-12-06T11:37:21.794Z,96.93
2022-12-06T11:39:54.626Z,96.65
2022-12-06T11:42:27.851Z,96.79
2022-12-06T11:45:21.825Z,96.83
2022-12-06T11:47:48.823Z,97.36
2022-12-06T11:50:19.514Z,97.40
2022-12-06T11:53:19.193Z,97.86
2022-12-06T11:55:54.049Z,96.87
2022-12-06T11:58:38.412Z,96.58
2022-12-06T12:01:10.982Z,96.51
2022-12-06T12:03:41.932Z,96.81
2022-12-06T12:06:26.336Z,97.07
2022-12-06T12:09:01.873Z,97.12
2022-12-06T12:11:40.215Z,97.12
2022-12-06T12:14:24.207Z,97.19
2022-12-06T12:17:01.462Z,97.33
2022-12-06T12:20:06.541Z,97.20
2022-12-06T12:22:42.954Z,96.73
2022-12-06T12:25:30.067Z,96.84
2022-12-06T12:28:21.675Z,96.85
2022-12-06T12:31:00.395Z,96.72
2022-12-06T12:33:28.940Z,97.15
2022-12-06T12:36:29.177Z,97.41
2022-12-06T12:39:01.210Z,97.35
2022-12-06T12:41:32.454Z,97.46
2022-12-06T12:44:35.743Z,97.29
2022-12-06T12:47:20.008Z,98.17
2022-12-06T12:50:13.374Z,98.30
2022-12-06T12:52:42.700Z,98.44
2022-12-06T12:55:29.641Z,98.47
2022-12-06T12:58:00.798Z,98.13
2022-12-06T13:00:38.861Z,98.26
2022-12-06T13:03:50.306Z,97.67
2022-12-06T13:06:27.724Z,97.63
2022-12-06T13:08:59.399Z,97.78
2022-12-06T13:11:27.299Z,97.63
2022-12-06T13:13:56.451Z,97.59
2022-12-06T13:16:35.934Z,97.19
2022-12-06T13:19:03.543Z,97.28
2022-12-06T13:21:39.379Z,97.53
2022-12-06T13:24:18.186Z,97.45
2022-12-06T13:27:08.511Z,97.74
2022-12-06T13:29:41.554Z,97.94
2022-12-06T13:32:53.722Z,98.18
2022-12-06T13:35:30.627Z,98.05
2022-12-06T13:38:25.979Z,98.49
2022-12-06T13:40:56.566Z,99.47
2022-12-06T13:43:26.393Z,99.02
2022-12-06T13:46:24.123Z,98.27
2022-12-06T13:49:19.553Z,98.32
2022-12-06T13:51:47.761Z,99.37
2022-12-06T13:54:15.508Z,99.37
2022-12-06T13:56:43.163Z,99.90
2022-12-06T13:59:13.148Z,100.00
2022-12-06T14:01:51.345Z,100.00
2022-12-06T14:04:24.620Z,100.00
2022-12-06T14:09:52.848Z,100.00
2022-12-06T14:12:28.509Z,100.00
2022-12-06T14:15:06.191Z,100.00
2022-12-06T14:20:31.984Z,100.00
2022-12-06T14:22:59.653Z,100.00
2022-12-06T14:25:30.426Z,100.00
2022-12-06T14:28:13.701Z,100.00
2022-12-06T14:30:40.888Z,100.00
2022-12-06T14:33:23.620Z,100.00
2022-12-06T14:35:53.783Z,100.00
2022-12-06T14:38:30.539Z,100.00
2022-12-06T14:41:16.433Z,100.00
2022-12-06T14:43:48.028Z,100.00
2022-12-06T14:46:17.858Z,100.00
2022-12-06T14:49:04.498Z,100.00
2022-12-06T14:51:40.762Z,100.00
2022-12-06T14:54:19.723Z,100.00
2022-12-06T14:56:47.789Z,100.00
2022-12-06T14:59:39.094Z,100.00
2022-12-06T15:02:25.812Z,100.00
2022-12-06T15:04:53.523Z,100.00
2022-12-06T15:07:49.941Z,100.00
2022-12-06T15:10:25.328Z,100.00
2022-12-06T15:12:55.647Z,100.00
2022-12-06T15:15:46.462Z,100.00
2022-12-06T15:18:26.453Z,100.00
2022-12-06T15:20:54.134Z,100.00
2022-12-06T15:23:36.382Z,100.00
2022-12-06T15:26:12.023Z,100.00
2022-12-06T15:28:39.645Z,100.00
2022-12-06T15:31:15.846Z,100.00
2022-12-06T15:33:42.866Z,100.00
2022-12-06T15:36:22.213Z,100.00
2022-12-06T15:38:49.816Z,100.00
2022-12-06T15:41:26.573Z,100.00
2022-12-06T15:43:54.798Z,100.00
2022-12-06T15:46:28.738Z,100.00
2022-12-06T15:48:56.473Z,100.00
2022-12-06T15:51:27.115Z,100.00
2022-12-06T16:14:21.374Z,100.00
2022-12-06T16:16:48.386Z,100.00
2022-12-06T16:19:15.394Z,100.00
2022-12-06T16:21:58.092Z,100.00
2022-12-06T16:24:25.070Z,100.00
2022-12-06T16:26:52.095Z,100.00
2022-12-06T16:29:25.029Z,100.00
2022-12-06T16:31:53.083Z,100.00
2022-12-06T16:34:20.599Z,100.00
2022-12-06T16:37:03.875Z,99.76
2022-12-06T16:39:33.705Z,100.00
2022-12-06T16:42:01.560Z,100.00
2022-12-06T16:44:28.795Z,100.00
2022-12-06T16:46:55.984Z,100.00
2022-12-06T16:49:45.913Z,100.00
2022-12-06T16:52:14.919Z,100.00
2022-12-06T16:54:42.418Z,99.51
2022-12-06T16:57:14.365Z,99.83
2022-12-06T16:59:42.773Z,99.73
2022-12-06T17:02:27.118Z,99.32
2022-12-06T17:04:56.088Z,99.38
2022-12-06T17:07:23.584Z,99.27
2022-12-06T17:09:50.590Z,99.26
2022-12-06T17:12:18.225Z,98.87
2022-12-06T17:14:45.445Z,98.60
2022-12-06T17:17:18.956Z,98.98
2022-12-06T17:19:46.260Z,98.15
2022-12-06T17:22:18.991Z,98.57
2022-12-06T17:24:46.119Z,98.55
2022-12-06T17:27:15.078Z,97.93
2022-12-06T17:29:43.581Z,98.45
2022-12-06T17:32:11.552Z,97.87
2022-12-06T17:34:38.828Z,97.29
2022-12-06T17:37:06.226Z,97.21
2022-12-06T17:39:33.795Z,97.80
2022-12-06T17:42:19.261Z,97.15
2022-12-06T17:44:46.356Z,96.67
2022-12-06T17:47:13.387Z,97.22
2022-12-06T17:49:40.346Z,96.68
2022-12-06T17:52:07.394Z,96.16
2022-12-06T17:54:34.351Z,96.04
2022-12-06T17:57:01.419Z,95.61
2022-12-06T17:59:31.879Z,95.55
2022-12-06T18:02:17.362Z,94.87
2022-12-06T18:04:46.454Z,94.72
2022-12-06T18:07:14.134Z,94.71
2022-12-06T18:09:41.320Z,94.67
2022-12-06T18:12:10.508Z,95.54
2022-12-06T18:14:37.634Z,95.78
2022-12-06T18:17:04.949Z,95.88
2022-12-06T18:19:32.193Z,95.46
2022-12-06T18:21:59.181Z,95.13
2022-12-06T18:24:31.784Z,95.30
2022-12-06T18:27:01.531Z,94.88
2022-12-06T18:29:28.545Z,94.51
2022-12-06T18:31:55.750Z,94.63
2022-12-06T18:34:23.005Z,95.21
2022-12-06T18:36:51.051Z,94.70
2022-12-06T18:39:24.546Z,95.05
2022-12-06T18:41:53.781Z,94.98
2022-12-06T18:44:21.141Z,94.49
2022-12-06T18:46:48.436Z,95.08
2022-12-06T18:49:15.757Z,94.97
2022-12-06T18:51:42.885Z,95.23
2022-12-06T18:54:13.772Z,94.84
2022-12-06T18:56:42.891Z,94.64
2022-12-06T18:59:12.130Z,94.14
2022-12-06T19:01:41.021Z,93.54
2022-12-06T19:04:11.101Z,94.53
2022-12-06T19:06:38.658Z,95.03
2022-12-06T19:09:12.167Z,95.39
2022-12-06T19:11:42.104Z,95.64
2022-12-06T19:14:09.181Z,96.00
2022-12-06T19:16:44.421Z,95.41
2022-12-06T19:19:24.079Z,94.58
2022-12-06T19:21:53.873Z,96.00
2022-12-06T19:24:24.846Z,95.89
2022-12-06T19:26:54.062Z,96.15
2022-12-06T19:29:22.112Z,96.55
2022-12-06T19:31:49.584Z,96.35
2022-12-06T19:34:22.738Z,95.80
2022-12-06T19:36:52.193Z,96.50
2022-12-06T19:39:20.519Z,96.16
2022-12-06T19:42:07.530Z,96.08
2022-12-06T19:44:35.067Z,96.61
2022-12-06T19:47:02.196Z,96.00
2022-12-06T19:49:29.297Z,96.26
2022-12-06T19:51:56.432Z,95.73
2022-12-06T19:54:29.986Z,94.56
2022-12-06T19:56:59.318Z,95.31
2022-12-06T19:59:33.822Z,95.56
2022-12-06T20:02:01.503Z,95.91
2022-12-06T20:04:37.994Z,94.98
2022-12-06T20:07:05.799Z,95.19
2022-12-06T20:09:33.666Z,94.15
2022-12-06T20:12:03.221Z,94.22
2022-12-06T20:14:45.007Z,95.06
2022-12-06T20:17:20.646Z,94.52
2022-12-06T20:19:49.267Z,95.05
2022-12-06T20:22:22.727Z,95.74
2022-12-06T20:24:50.168Z,94.39
2022-12-06T20:27:17.142Z,93.39
2022-12-06T20:29:44.203Z,94.31
2022-12-06T20:32:11.560Z,93.34
2022-12-06T20:34:38.548Z,93.34
2022-12-06T20:37:07.022Z,93.62
2022-12-06T20:39:35.956Z,93.91
2022-12-06T20:42:05.804Z,94.35
2022-12-06T20:44:33.182Z,94.18
2022-12-06T20:47:00.446Z,94.43
2022-12-06T20:49:27.523Z,93.70
2022-12-06T20:51:54.617Z,93.74
2022-12-06T20:54:22.344Z,93.42
2022-12-06T20:56:52.135Z,94.04
2022-12-06T20:59:20.013Z,94.38
2022-12-06T21:01:47.199Z,93.80
2022-12-06T21:04:15.029Z,94.36
2022-12-06T21:06:42.559Z,94.18
2022-12-06T21:09:09.570Z,94.55
2022-12-06T21:11:36.922Z,95.21
2022-12-06T21:14:05.553Z,95.15
2022-12-06T21:16:35.442Z,94.99
2022-12-06T21:19:06.132Z,93.95
2022-12-06T21:21:39.892Z,94.53
2022-12-06T21:24:12.085Z,94.47
2022-12-06T21:26:39.194Z,94.14
2022-12-06T21:29:06.691Z,94.98
2022-12-06T21:31:41.061Z,94.34
2022-12-06T21:34:08.516Z,93.47
2022-12-06T21:36:35.476Z,94.26
2022-12-06T21:39:02.432Z,93.89
2022-12-06T21:41:29.476Z,94.23
2022-12-06T21:43:56.822Z,94.63
2022-12-06T21:46:26.908Z,93.97
2022-12-06T21:49:00.091Z,94.04
2022-12-06T21:51:30.533Z,94.25
2022-12-06T21:53:58.636Z,93.88
2022-12-06T21:56:29.728Z,93.41
2022-12-06T21:58:59.991Z,93.44
2022-12-06T22:01:29.082Z,94.23
2022-12-06T22:04:01.086Z,94.77
2022-12-06T22:06:28.110Z,95.40
2022-12-06T22:09:02.575Z,96.01
2022-12-06T22:11:30.617Z,95.51
2022-12-06T22:13:59.738Z,95.92
2022-12-06T22:16:28.111Z,95.62
2022-12-06T22:18:55.516Z,95.51
2022-12-06T22:21:26.613Z,95.43
2022-12-06T22:23:54.728Z,94.88
2022-12-06T22:26:23.932Z,94.42
2022-12-06T22:28:51.574Z,94.35
2022-12-06T22:31:28.334Z,93.81
2022-12-06T22:33:57.497Z,94.19
2022-12-06T22:36:27.090Z,94.18
2022-12-06T22:39:00.575Z,93.91
2022-12-06T22:41:28.301Z,93.73
2022-12-06T22:44:04.574Z,93.72
2022-12-06T22:46:33.081Z,94.22
2022-12-06T22:49:01.396Z,94.60
2022-12-06T22:51:35.061Z,94.32
2022-12-06T22:54:10.307Z,93.99
2022-12-06T22:56:39.732Z,93.88
2022-12-06T22:59:08.986Z,94.47
2022-12-06T23:01:36.215Z,94.56
2022-12-06T23:04:06.680Z,94.42
2022-12-06T23:06:35.945Z,94.60
2022-12-06T23:09:07.789Z,94.25
2022-12-06T23:11:36.798Z,94.32
2022-12-06T23:14:04.585Z,94.93
2022-12-06T23:16:32.677Z,94.73
2022-12-06T23:19:02.024Z,94.51
2022-12-06T23:21:32.412Z,94.65
2022-12-06T23:24:04.323Z,94.73
2022-12-06T23:26:35.427Z,94.96
2022-12-06T23:29:02.706Z,95.09
2022-12-06T23:31:33.027Z,94.70
2022-12-06T23:34:30.058Z,95.02
2022-12-06T23:36:57.417Z,95.46
2022-12-06T23:39:24.455Z,95.48
2022-12-06T23:41:51.503Z,95.49
2022-12-06T23:44:18.568Z,95.01
2022-12-06T23:46:46.067Z,94.80
2022-12-06T23:49:21.942Z,94.54
2022-12-06T23:51:49.643Z,94.19
2022-12-06T23:54:18.002Z,93.86
2022-12-06T23:56:45.238Z,94.60
2022-12-06T23:59:14.756Z,95.34
